createdAt,value
2023-02-28T00:01:14.462Z,3.40
2023-02-28T00:03:41.117Z,2.74
2023-02-28T00:06:10.602Z,2.80
2023-02-28T00:08:38.665Z,3.15
2023-02-28T00:11:08.034Z,3.30
2023-02-28T00:16:21.293Z,2.68
2023-02-28T00:18:48.784Z,2.60
2023-02-28T00:27:25.804Z,2.89
2023-02-28T00:29:52.405Z,2.89
2023-02-28T00:32:19.961Z,2.97
2023-02-28T00:34:46.900Z,3.01
2023-02-28T00:37:13.759Z,3.41
2023-02-28T00:39:40.809Z,3.07
2023-02-28T00:45:05.553Z,3.38
2023-02-28T00:47:33.102Z,3.66
2023-02-28T00:50:01.358Z,3.68
2023-02-28T00:52:36.720Z,3.79
2023-02-28T00:55:40.526Z,3.90
2023-02-28T00:58:06.933Z,4.01
2023-02-28T01:00:33.482Z,3.94
2023-02-28T01:03:00.033Z,3.99
2023-02-28T01:05:26.610Z,3.68
2023-02-28T01:07:53.174Z,3.88
2023-02-28T01:10:21.812Z,4.01
2023-02-28T01:15:23.814Z,4.04
2023-02-28T01:17:50.398Z,4.17
2023-02-28T01:20:17.128Z,4.08
2023-02-28T01:22:43.656Z,4.15
2023-02-28T01:25:10.324Z,4.11
2023-02-28T01:28:34.519Z,4.23
2023-02-28T01:31:41.994Z,4.34
2023-02-28T01:34:08.596Z,4.32
2023-02-28T01:36:35.171Z,4.32
2023-02-28T01:39:01.721Z,4.32
2023-02-28T01:41:32.944Z,4.37
2023-02-28T01:44:06.642Z,4.44
2023-02-28T01:46:51.581Z,4.38
2023-02-28T01:49:19.638Z,4.35
2023-02-28T01:51:56.195Z,4.27
2023-02-28T01:54:29.782Z,4.34
2023-02-28T01:57:39.261Z,4.44
2023-02-28T02:01:02.995Z,4.46
2023-02-28T02:03:31.358Z,4.44
2023-02-28T02:05:58.292Z,4.40
2023-02-28T02:08:29.098Z,4.39
2023-02-28T02:10:58.071Z,4.04
2023-02-28T02:13:46.431Z,4.22
2023-02-28T02:19:15.967Z,3.96
2023-02-28T02:22:28.898Z,4.23
2023-02-28T02:25:33.126Z,3.80
2023-02-28T02:32:18.304Z,4.00
2023-02-28T02:35:04.700Z,3.09
2023-02-28T02:37:35.836Z,3.75
2023-02-28T02:40:18.946Z,3.58
2023-02-28T02:43:08.709Z,3.58
2023-02-28T02:45:56.743Z,4.01
2023-02-28T02:48:29.671Z,3.67
2023-02-28T02:51:00.622Z,3.60
2023-02-28T02:53:42.673Z,3.91
2023-02-28T03:00:09.467Z,3.61
2023-02-28T03:02:39.341Z,4.12
2023-02-28T03:05:16.249Z,3.95
2023-02-28T03:07:43.420Z,3.32
2023-02-28T03:10:28.422Z,3.68
2023-02-28T03:13:20.482Z,3.55
2023-02-28T03:18:52.911Z,3.39
2023-02-28T03:21:34.997Z,2.64
2023-02-28T03:24:04.305Z,2.59
2023-02-28T03:27:25.548Z,3.00
2023-02-28T03:30:20.499Z,3.41
2023-02-28T03:33:10.013Z,3.41
2023-02-28T03:35:57.071Z,3.55
2023-02-28T03:38:36.402Z,3.52
2023-02-28T03:41:09.999Z,3.68
2023-02-28T03:43:40.198Z,3.80
2023-02-28T03:46:25.563Z,3.98
2023-02-28T03:49:02.897Z,3.88
2023-02-28T03:51:30.948Z,3.66
2023-02-28T03:54:12.064Z,3.73
2023-02-28T03:57:19.347Z,3.24
2023-02-28T04:00:11.393Z,3.33
2023-02-28T04:02:37.971Z,3.15
2023-02-28T04:05:04.819Z,3.61
2023-02-28T04:10:07.965Z,3.47
2023-02-28T04:12:34.561Z,3.78
2023-02-28T04:15:16.772Z,3.64
2023-02-28T04:17:43.475Z,4.08
2023-02-28T04:20:13.385Z,3.54
2023-02-28T04:22:40.110Z,3.16
2023-02-28T04:25:18.099Z,3.06
2023-02-28T04:28:22.050Z,2.78
2023-02-28T04:31:10.902Z,2.75
2023-02-28T04:33:38.147Z,3.16
2023-02-28T04:36:08.392Z,3.06
2023-02-28T04:38:39.611Z,3.25
2023-02-28T04:41:06.807Z,3.35
2023-02-28T04:43:33.679Z,3.77
2023-02-28T04:46:03.666Z,3.47
2023-02-28T04:48:31.776Z,3.07
2023-02-28T04:51:04.146Z,3.25
2023-02-28T04:53:30.830Z,3.50
2023-02-28T04:55:58.348Z,3.19
2023-02-28T04:58:25.440Z,3.32
2023-02-28T05:01:30.586Z,3.28
2023-02-28T05:03:59.201Z,3.49
2023-02-28T05:06:28.472Z,3.59
2023-02-28T05:09:09.040Z,3.27
2023-02-28T05:11:44.215Z,3.42
2023-02-28T05:14:30.501Z,3.78
2023-02-28T05:16:57.055Z,3.73
2023-02-28T05:19:23.632Z,3.49
2023-02-28T05:21:55.481Z,3.65
2023-02-28T05:24:25.277Z,3.74
2023-02-28T05:26:53.953Z,3.75
2023-02-28T05:34:31.084Z,3.89
2023-02-28T05:36:57.693Z,4.08
2023-02-28T05:39:24.325Z,3.85
2023-02-28T05:41:50.961Z,3.56
2023-02-28T05:48:16.690Z,4.02
2023-02-28T05:50:43.702Z,4.21
2023-02-28T05:53:10.291Z,4.31
2023-02-28T05:55:38.446Z,4.14
2023-02-28T05:58:05.155Z,3.88
2023-02-28T06:00:31.717Z,4.14
2023-02-28T06:03:01.025Z,4.31
2023-02-28T06:05:27.708Z,4.45
2023-02-28T06:07:54.373Z,4.57
2023-02-28T06:10:20.926Z,4.53
2023-02-28T06:12:47.549Z,4.28
2023-02-28T06:15:16.026Z,4.26
2023-02-28T06:17:43.859Z,4.49
2023-02-28T06:20:13.843Z,4.45
2023-02-28T06:22:40.923Z,4.36
2023-02-28T06:25:08.113Z,4.49
2023-02-28T06:27:35.066Z,4.13
2023-02-28T06:30:01.693Z,3.91
2023-02-28T06:32:30.615Z,4.40
2023-02-28T06:34:59.000Z,4.38
2023-02-28T06:37:28.719Z,4.57
2023-02-28T06:39:56.924Z,4.65
2023-02-28T06:42:29.726Z,4.75
2023-02-28T06:44:57.046Z,4.47
2023-02-28T06:47:23.965Z,4.47
2023-02-28T06:49:50.971Z,3.83
2023-02-28T06:52:17.781Z,3.80
2023-02-28T06:54:44.324Z,3.76
2023-02-28T06:57:10.877Z,3.98
2023-02-28T06:59:37.541Z,4.23
2023-02-28T07:02:04.198Z,3.54
2023-02-28T07:04:30.794Z,3.92
2023-02-28T07:06:57.984Z,4.47
2023-02-28T07:09:24.881Z,4.09
2023-02-28T07:11:51.471Z,4.43
2023-02-28T07:14:18.020Z,4.24
2023-02-28T07:16:46.460Z,3.78
2023-02-28T07:19:57.124Z,4.22
2023-02-28T07:23:01.596Z,4.38
2023-02-28T07:25:29.600Z,4.70
2023-02-28T07:27:57.183Z,4.09
2023-02-28T07:30:23.881Z,4.32
2023-02-28T07:32:50.436Z,4.46
2023-02-28T07:35:17.175Z,4.63
2023-02-28T07:37:43.797Z,4.31
2023-02-28T07:40:15.049Z,4.81
2023-02-28T07:42:42.784Z,4.74
2023-02-28T07:45:12.633Z,4.65
2023-02-28T07:47:39.963Z,4.80
2023-02-28T07:50:08.823Z,5.00
2023-02-28T07:52:35.552Z,4.86
2023-02-28T07:55:02.183Z,4.81
2023-02-28T07:57:28.784Z,5.09
2023-02-28T07:59:55.340Z,5.21
2023-02-28T08:02:21.941Z,5.18
2023-02-28T08:04:49.487Z,5.49
2023-02-28T08:07:17.477Z,5.33
2023-02-28T08:09:45.373Z,5.02
2023-02-28T08:12:12.599Z,4.98
2023-02-28T08:14:40.647Z,5.82
2023-02-28T08:17:07.787Z,5.77
2023-02-28T08:19:34.348Z,5.59
2023-02-28T08:22:00.912Z,5.51
2023-02-28T08:24:46.162Z,6.32
2023-02-28T08:27:47.816Z,6.81
2023-02-28T08:30:15.556Z,7.09
2023-02-28T08:32:42.495Z,6.81
2023-02-28T08:35:10.377Z,7.39
2023-02-28T08:37:37.051Z,8.01
2023-02-28T08:40:05.234Z,7.51
2023-02-28T08:42:33.202Z,7.32
2023-02-28T08:44:59.788Z,8.04
2023-02-28T08:47:26.525Z,8.52
2023-02-28T08:49:53.101Z,8.36
2023-02-28T08:52:19.888Z,6.98
2023-02-28T08:54:47.889Z,7.55
2023-02-28T08:57:14.605Z,7.54
2023-02-28T08:59:41.267Z,7.88
2023-02-28T09:02:20.641Z,6.34
2023-02-28T09:04:47.190Z,6.99
2023-02-28T09:07:13.963Z,7.26
2023-02-28T09:09:54.559Z,7.59
2023-02-28T09:12:25.921Z,7.67
2023-02-28T09:14:53.354Z,7.46
2023-02-28T09:17:20.938Z,7.09
2023-02-28T09:19:49.392Z,7.16
2023-02-28T09:22:16.112Z,7.03
2023-02-28T09:24:42.976Z,6.76
2023-02-28T09:27:09.919Z,6.92
2023-02-28T09:29:36.792Z,6.60
2023-02-28T09:32:03.924Z,6.91
2023-02-28T09:34:33.417Z,7.56
2023-02-28T09:37:00.059Z,7.70
2023-02-28T09:39:27.837Z,7.04
2023-02-28T09:41:56.655Z,6.77
2023-02-28T09:45:04.219Z,7.22
2023-02-28T09:48:07.991Z,7.56
2023-02-28T09:50:34.494Z,8.56
2023-02-28T09:53:06.635Z,7.42
2023-02-28T09:55:47.304Z,7.95
2023-02-28T09:58:25.990Z,7.47
2023-02-28T10:01:25.977Z,8.46
2023-02-28T10:04:32.690Z,8.57
2023-02-28T10:07:02.535Z,8.29
2023-02-28T10:09:33.035Z,8.59
2023-02-28T10:12:07.944Z,8.50
2023-02-28T10:14:36.481Z,8.68
2023-02-28T10:17:14.483Z,8.03
2023-02-28T10:19:45.406Z,7.76
2023-02-28T10:22:20.607Z,7.29
2023-02-28T10:24:51.761Z,8.01
2023-02-28T10:27:20.082Z,7.28
2023-02-28T10:29:55.403Z,8.02
2023-02-28T10:32:26.267Z,7.69
2023-02-28T10:35:07.518Z,7.29
2023-02-28T10:37:39.171Z,7.87
2023-02-28T10:40:33.307Z,7.96
2023-02-28T10:43:06.462Z,7.55
2023-02-28T10:45:39.537Z,7.80
2023-02-28T10:48:26.006Z,8.33
2023-02-28T10:50:55.797Z,8.73
2023-02-28T10:53:28.442Z,9.13
2023-02-28T10:56:02.425Z,8.70
2023-02-28T10:58:49.786Z,8.93
2023-02-28T11:01:18.327Z,9.24
2023-02-28T11:03:45.147Z,9.77
2023-02-28T11:06:22.937Z,9.30
2023-02-28T11:09:02.014Z,8.52
2023-02-28T11:11:42.957Z,8.34
2023-02-28T11:14:22.029Z,8.56
2023-02-28T11:16:51.065Z,9.36
2023-02-28T11:19:28.204Z,8.86
2023-02-28T11:22:03.816Z,8.80
2023-02-28T11:24:38.249Z,9.22
2023-02-28T11:27:04.848Z,9.35
2023-02-28T11:29:34.107Z,9.43
2023-02-28T11:32:22.371Z,8.41
2023-02-28T11:35:01.832Z,8.46
2023-02-28T11:37:29.809Z,8.61
2023-02-28T11:39:57.107Z,8.80
2023-02-28T11:42:58.531Z,9.39
2023-02-28T11:46:18.637Z,9.97
2023-02-28T11:48:58.675Z,8.92
2023-02-28T11:51:33.252Z,9.76
2023-02-28T11:54:00.159Z,9.62
2023-02-28T11:56:44.867Z,10.13
2023-02-28T11:59:11.385Z,9.90
2023-02-28T12:01:44.829Z,9.50
2023-02-28T12:08:41.594Z,9.58
2023-02-28T12:11:46.727Z,9.86
2023-02-28T12:14:18.756Z,9.63
2023-02-28T12:16:46.786Z,9.71
2023-02-28T12:19:21.763Z,9.81
2023-02-28T12:22:00.587Z,9.55
2023-02-28T12:24:43.704Z,9.41
2023-02-28T12:27:14.603Z,7.95
2023-02-28T12:29:51.469Z,8.74
2023-02-28T12:32:31.931Z,9.17
2023-02-28T12:35:10.540Z,8.43
2023-02-28T12:37:50.464Z,9.06
2023-02-28T12:40:22.106Z,8.08
2023-02-28T12:42:58.417Z,8.19
2023-02-28T12:45:28.671Z,8.94
2023-02-28T12:48:05.790Z,8.97
2023-02-28T12:50:50.290Z,8.78
2023-02-28T12:53:39.446Z,9.32
2023-02-28T12:56:20.058Z,9.13
2023-02-28T12:58:48.975Z,8.31
2023-02-28T13:01:48.636Z,8.54
2023-02-28T13:04:43.361Z,9.42
2023-02-28T13:07:38.075Z,8.94
2023-02-28T13:10:08.543Z,9.32
2023-02-28T13:12:36.518Z,9.29
2023-02-28T13:15:29.579Z,9.02
2023-02-28T13:17:57.418Z,9.58
2023-02-28T13:20:30.825Z,9.98
2023-02-28T13:22:58.805Z,9.17
2023-02-28T13:25:34.835Z,9.49
2023-02-28T13:28:11.759Z,9.02
2023-02-28T13:30:56.962Z,8.78
2023-02-28T13:33:26.263Z,8.78
2023-02-28T13:36:15.302Z,8.25
2023-02-28T13:38:43.940Z,8.86
2023-02-28T13:41:30.075Z,8.81
2023-02-28T13:44:14.654Z,8.96
2023-02-28T13:46:50.506Z,7.97
2023-02-28T13:49:35.417Z,8.88
2023-02-28T13:52:21.974Z,8.48
2023-02-28T13:55:12.775Z,8.32
2023-02-28T13:57:51.789Z,8.97
2023-02-28T14:00:24.330Z,9.06
2023-02-28T14:03:07.734Z,8.77
2023-02-28T14:05:36.320Z,8.25
2023-02-28T14:08:19.556Z,8.77
2023-02-28T14:10:49.181Z,8.55
2023-02-28T14:13:47.979Z,8.97
2023-02-28T14:16:21.338Z,9.23
2023-02-28T14:18:59.575Z,8.54
2023-02-28T14:21:35.355Z,7.66
2023-02-28T14:24:33.198Z,8.13
2023-02-28T14:27:18.032Z,8.18
2023-02-28T14:30:06.733Z,8.20
2023-02-28T14:33:00.905Z,8.47
2023-02-28T14:35:52.206Z,8.12
2023-02-28T14:38:30.193Z,8.60
2023-02-28T14:40:59.464Z,8.63
2023-02-28T14:43:28.701Z,8.75
2023-02-28T14:45:58.449Z,8.62
2023-02-28T14:48:27.148Z,8.04
2023-02-28T14:50:59.637Z,8.56
2023-02-28T14:53:52.480Z,9.00
2023-02-28T14:56:24.189Z,8.73
2023-02-28T14:58:56.310Z,8.26
2023-02-28T15:01:24.458Z,7.60
2023-02-28T15:04:03.704Z,7.76
2023-02-28T15:06:31.549Z,8.36
2023-02-28T15:09:15.069Z,8.13
2023-02-28T15:11:42.760Z,7.54
2023-02-28T15:14:18.024Z,6.75
2023-02-28T15:16:47.176Z,7.22
2023-02-28T15:19:26.004Z,7.65
2023-02-28T15:22:01.052Z,7.49
2023-02-28T15:28:30.845Z,8.00
2023-02-28T15:31:03.399Z,7.28
2023-02-28T15:33:32.351Z,7.67
2023-02-28T15:36:16.952Z,8.02
2023-02-28T15:38:44.843Z,7.15
2023-02-28T15:41:29.793Z,7.85
2023-02-28T15:44:27.945Z,6.18
2023-02-28T15:46:56.178Z,6.30
2023-02-28T15:49:24.947Z,6.15
2023-02-28T15:52:14.642Z,6.26
2023-02-28T15:56:07.480Z,6.19
2023-02-28T15:58:43.636Z,6.67
2023-02-28T16:30:37.592Z,6.74
2023-02-28T16:33:04.174Z,6.71
2023-02-28T16:35:30.836Z,6.83
2023-02-28T16:37:57.564Z,6.88
2023-02-28T17:18:22.214Z,6.88
2023-02-28T17:24:30.329Z,6.31
2023-02-28T17:53:59.533Z,6.96
2023-02-28T18:23:58.569Z,7.30
2023-02-28T18:48:08.527Z,6.84
2023-02-28T20:17:30.821Z,7.02
2023-02-28T20:19:57.381Z,7.14
2023-02-28T20:22:23.959Z,7.18
2023-02-28T20:24:50.540Z,7.44
2023-02-28T20:46:18.998Z,7.72
2023-02-28T21:10:08.170Z,7.83
2023-02-28T21:24:48.401Z,7.83
2023-02-28T21:37:05.095Z,7.58
